Time;durP1;ratioP1;P1;durP2;ratioP2;P2;SDS_P1;SDS_P2;PMS_P1;PMS_P2;Temp;Humidity;BMP_temperature;BMP_pressure;BME280_temperature;BME280_humidity;BME280_pressure;Samples;Min_cycle;Max_cycle;Signal;HPM_P1;HPM_P2
2022/08/08 00:01:43;;;;;;;8.80;6.07;;;;;;;15.71;63.88;102426.09;5018510;28;20061;-57
2022/08/08 00:04:19;;;;;;;10.10;6.60;;;;;;;15.59;63.85;102424.72;5025043;28;20038;-52
2022/08/08 00:07:11;;;;;;;8.38;6.70;;;;;;;15.67;64.39;102431.94;5018163;28;20033;-56
2022/08/08 00:09:53;;;;;;;8.77;6.63;;;;;;;15.64;64.90;102430.44;5018987;28;20045;-56
2022/08/08 00:12:24;;;;;;;9.93;6.90;;;;;;;15.49;64.98;102424.84;5021582;28;20455;-56
2022/08/08 00:14:57;;;;;;;14.95;6.75;;;;;;;15.40;65.11;102427.69;5019168;28;20037;-57
2022/08/08 00:17:38;;;;;;;11.20;7.38;;;;;;;15.33;65.39;102429.34;5017013;28;20025;-57
2022/08/08 00:20:09;;;;;;;10.38;6.72;;;;;;;15.44;65.24;102429.84;5017824;28;20542;-56
2022/08/08 00:22:40;;;;;;;11.95;7.72;;;;;;;15.43;65.54;102430.03;5019190;28;20040;-55
2022/08/08 00:25:11;;;;;;;8.32;7.15;;;;;;;15.33;66.06;102419.47;5017040;28;20041;-58
2022/08/08 00:27:39;;;;;;;8.52;7.18;;;;;;;15.26;65.87;102423.78;5023213;28;20562;-55
2022/08/08 00:30:07;;;;;;;12.27;7.47;;;;;;;15.24;65.57;102430.28;5016441;28;20029;-57
2022/08/08 00:32:42;;;;;;;14.43;7.45;;;;;;;15.21;66.04;102426.09;5023709;28;20029;-56
2022/08/08 00:35:29;;;;;;;10.27;7.55;;;;;;;15.14;65.76;102422.41;5011234;28;20022;-57
2022/08/08 00:38:06;;;;;;;12.70;7.82;;;;;;;15.17;65.86;102428.25;5018344;28;20437;-56
2022/08/08 00:40:53;;;;;;;10.43;7.60;;;;;;;15.12;66.11;102427.09;5024485;28;20084;-55
2022/08/08 00:43:56;;;;;;;9.90;8.00;;;;;;;15.12;66.29;102425.25;5017401;28;20402;-55
2022/08/08 00:46:42;;;;;;;13.73;7.78;;;;;;;15.18;66.62;102427.25;5017871;28;20041;-56
2022/08/08 00:49:07;;;;;;;10.30;8.57;;;;;;;15.08;66.95;102415.88;5017369;28;20036;-55
2022/08/08 00:51:44;;;;;;;13.65;8.63;;;;;;;15.03;67.14;102423.50;5020292;28;20029;-55
2022/08/08 00:54:18;;;;;;;9.90;7.97;;;;;;;15.02;67.08;102418.31;5016288;28;20040;-54
2022/08/08 00:57:08;;;;;;;13.13;8.23;;;;;;;14.96;67.66;102416.31;5015088;28;20021;-54
2022/08/08 00:59:34;;;;;;;10.88;9.20;;;;;;;14.89;67.80;102413.44;5022118;28;20037;-56
2022/08/08 01:02:10;;;;;;;12.77;8.77;;;;;;;14.87;67.90;102410.91;5020563;28;20056;-56
2022/08/08 01:05:07;;;;;;;12.27;8.88;;;;;;;14.90;68.23;102407.09;5026477;28;20517;-57
2022/08/08 01:08:01;;;;;;;12.07;9.27;;;;;;;14.85;68.29;102407.56;5021432;28;20034;-56
2022/08/08 01:10:51;;;;;;;12.27;8.82;;;;;;;14.78;68.37;102403.03;5021075;28;20568;-55
2022/08/08 01:13:35;;;;;;;13.07;9.43;;;;;;;14.78;68.58;102413.72;5024450;28;20030;-55
2022/08/08 01:16:45;;;;;;;10.85;8.77;;;;;;;14.80;69.04;102415.25;5015981;28;20579;-55
2022/08/08 01:19:32;;;;;;;12.32;9.45;;;;;;;14.83;69.07;102416.75;5023630;28;20036;-55
2022/08/08 01:22:24;;;;;;;15.10;10.20;;;;;;;14.67;68.94;102411.31;5023526;28;20498;-55
2022/08/08 01:24:50;;;;;;;14.32;9.40;;;;;;;14.62;69.23;102411.78;5020954;28;20510;-57
2022/08/08 01:27:27;;;;;;;12.73;8.88;;;;;;;14.67;69.21;102417.50;5018203;28;20038;-57
2022/08/08 01:29:55;;;;;;;12.27;9.05;;;;;;;14.65;69.08;102418.66;5026369;28;20084;-55
2022/08/08 01:32:50;;;;;;;13.00;9.73;;;;;;;14.72;69.45;102422.38;5027743;28;20028;-55
2022/08/08 01:35:36;;;;;;;15.70;10.68;;;;;;;14.72;69.39;102414.34;5024660;28;20036;-55
2022/08/08 01:38:08;;;;;;;13.38;9.77;;;;;;;14.68;69.43;102413.81;5024200;28;20037;-56
2022/08/08 01:40:47;;;;;;;13.30;9.38;;;;;;;14.53;68.88;102418.94;5024374;28;20029;-54
2022/08/08 01:43:37;;;;;;;12.18;10.13;;;;;;;14.42;68.41;102415.63;5015124;28;20655;-55
2022/08/08 01:46:20;;;;;;;12.00;9.50;;;;;;;14.44;69.07;102419.84;5020134;28;20037;-57
2022/08/08 01:49:16;;;;;;;11.90;9.85;;;;;;;14.44;68.77;102429.72;5016425;28;20028;-57
2022/08/08 01:52:19;;;;;;;11.63;9.32;;;;;;;14.39;68.48;102415.94;5016643;28;20056;-56
2022/08/08 01:55:06;;;;;;;11.55;8.88;;;;;;;14.24;68.57;102416.53;4999172;28;20037;-54
2022/08/08 01:57:56;;;;;;;11.82;9.40;;;;;;;14.22;68.75;102423.03;5024411;28;20022;-56
2022/08/08 02:00:26;;;;;;;14.88;9.27;;;;;;;14.04;68.86;102414.19;5019146;28;20030;-52
2022/08/08 02:02:57;;;;;;;11.80;9.57;;;;;;;13.99;68.63;102414.66;5016993;28;20040;-56
2022/08/08 02:05:49;;;;;;;12.05;9.70;;;;;;;14.08;69.52;102423.56;5019587;28;20049;-53
2022/08/08 02:08:30;;;;;;;13.00;10.43;;;;;;;14.02;69.29;102416.19;5019739;28;20043;-57
2022/08/08 02:11:07;;;;;;;14.50;9.57;;;;;;;13.95;69.05;102419.47;5021480;28;20026;-57
2022/08/08 02:13:38;;;;;;;12.25;9.95;;;;;;;13.84;69.47;102418.84;5021537;28;20051;-55
2022/08/08 02:16:25;;;;;;;12.77;9.63;;;;;;;13.86;69.48;102423.06;5016065;28;20030;-56
2022/08/08 02:19:02;;;;;;;12.10;9.80;;;;;;;13.81;69.52;102422.69;5020362;28;20018;-56
2022/08/08 02:24:37;;;;;;;14.98;10.70;;;;;;;13.95;70.18;102413.31;5021747;28;20092;-57
2022/08/08 02:27:16;;;;;;;17.02;11.13;;;;;;;14.02;71.21;102410.84;5020805;28;20438;-57
2022/08/08 02:30:02;;;;;;;15.63;11.13;;;;;;;14.16;71.61;102402.25;5021823;28;20049;-56
2022/08/08 02:33:08;;;;;;;14.27;8.93;;;;;;;14.18;71.71;102411.81;5022248;28;20443;-51
2022/08/08 02:35:36;;;;;;;15.05;9.93;;;;;;;14.17;71.70;102417.31;5024775;28;20025;-56
2022/08/08 02:38:32;;;;;;;21.63;10.77;;;;;;;14.20;71.64;102419.69;5020839;28;20036;-56
2022/08/08 02:41:35;;;;;;;31.60;11.85;;;;;;;14.09;71.06;102423.41;5022500;28;20516;-56
2022/08/08 02:44:34;;;;;;;14.88;9.93;;;;;;;14.04;70.65;102414.19;5018241;28;20087;-56
2022/08/08 02:47:31;;;;;;;12.77;9.43;;;;;;;13.95;70.85;102415.97;5019399;28;20033;-53
2022/08/08 02:50:20;;;;;;;12.05;9.75;;;;;;;13.95;70.60;102419.47;5023262;28;20029;-58
2022/08/08 02:52:45;;;;;;;10.73;9.35;;;;;;;13.82;70.29;102418.19;5014208;28;20113;-55
2022/08/08 02:55:32;;;;;;;13.63;9.90;;;;;;;13.82;70.57;102432.38;5025148;28;20144;-54
2022/08/08 02:58:00;;;;;;;13.05;10.10;;;;;;;13.84;71.15;102425.03;5022408;28;20404;-56
2022/08/08 03:00:37;;;;;;;12.50;9.88;;;;;;;13.87;71.76;102423.88;5017107;28;20038;-56
2022/08/08 03:03:24;;;;;;;11.57;9.43;;;;;;;13.84;71.38;102422.38;5020546;28;20051;-55
2022/08/08 03:06:08;;;;;;;13.43;9.38;;;;;;;13.78;71.26;102425.66;5015148;28;20022;-56
2022/08/08 03:08:56;;;;;;;10.95;9.73;;;;;;;13.82;71.95;102427.03;5021475;28;20144;-55
2022/08/08 03:11:46;;;;;;;15.35;10.30;;;;;;;13.85;71.94;102420.53;5021704;28;20021;-54
2022/08/08 03:14:33;;;;;;;10.82;8.95;;;;;;;13.83;72.21;102428.69;5018682;28;20037;-55
2022/08/08 03:17:05;;;;;;;8.55;7.22;;;;;;;13.62;72.10;102434.38;5021301;28;20014;-55
2022/08/08 03:20:05;;;;;;;10.98;7.82;;;;;;;13.70;72.02;102433.59;5017055;28;20030;-55
2022/08/08 03:22:33;;;;;;;11.15;8.40;;;;;;;13.57;71.78;102436.63;5022595;28;20038;-54
2022/08/08 03:25:01;;;;;;;10.93;8.85;;;;;;;13.58;72.15;102430.28;5020046;28;20478;-55
2022/08/08 03:27:34;;;;;;;13.27;9.38;;;;;;;13.61;72.83;102434.53;5024645;28;20040;-53
2022/08/08 03:30:08;;;;;;;14.38;10.63;;;;;;;13.58;73.10;102440.13;5018074;28;20030;-54
2022/08/08 03:35:18;;;;;;;12.30;9.68;;;;;;;13.59;73.15;102426.66;5019897;28;20091;-56
2022/08/08 03:37:44;;;;;;;12.32;9.15;;;;;;;13.54;73.05;102433.41;5019222;28;20029;-56
2022/08/08 03:40:10;;;;;;;12.60;9.13;;;;;;;13.59;73.02;102432.00;5019398;28;20061;-54
2022/08/08 03:42:37;;;;;;;13.32;10.40;;;;;;;13.69;73.27;102431.09;5018540;28;20462;-54
2022/08/08 03:45:15;;;;;;;14.65;11.02;;;;;;;13.70;74.04;102433.59;5024444;28;20184;-54
2022/08/08 03:47:40;;;;;;;13.32;11.20;;;;;;;13.75;73.90;102433.97;5014065;28;20068;-53
2022/08/08 03:50:15;;;;;;;15.48;10.25;;;;;;;13.80;74.20;102438.84;5015132;28;20060;-55
2022/08/08 03:52:41;;;;;;;18.00;10.88;;;;;;;13.74;73.96;102442.97;5018010;28;20035;-54
2022/08/08 03:55:15;;;;;;;14.15;10.05;;;;;;;13.68;73.81;102445.41;5023958;28;20038;-54
2022/08/08 03:57:51;;;;;;;15.65;10.55;;;;;;;13.65;73.26;102446.56;5017646;28;20033;-55
2022/08/08 04:00:20;;;;;;;11.30;9.20;;;;;;;13.56;73.04;102437.63;5021345;28;20030;-52
2022/08/08 04:03:00;;;;;;;10.63;9.50;;;;;;;13.54;72.64;102436.94;5012611;28;20029;-55
2022/08/08 04:05:27;;;;;;;15.38;10.52;;;;;;;13.48;73.15;102445.53;5016281;28;20024;-55
2022/08/08 04:07:53;;;;;;;11.18;9.88;;;;;;;13.45;73.11;102447.69;5016357;28;20429;-54
2022/08/08 04:10:18;;;;;;;13.07;10.35;;;;;;;13.43;73.25;102442.50;5018315;28;20528;-55
2022/08/08 04:12:43;;;;;;;12.13;10.15;;;;;;;13.51;73.54;102457.75;5017297;28;20025;-51
2022/08/08 04:15:09;;;;;;;14.68;9.68;;;;;;;13.42;73.24;102453.31;5013710;28;20057;-56
2022/08/08 04:17:34;;;;;;;14.10;10.55;;;;;;;13.44;73.47;102457.50;5020312;28;20409;-57
2022/08/08 04:20:00;;;;;;;19.13;11.20;;;;;;;13.55;73.77;102459.97;5016006;28;20076;-57
2022/08/08 04:22:27;;;;;;;13.38;10.57;;;;;;;13.48;74.19;102450.03;5022965;28;20080;-54
2022/08/08 04:24:53;;;;;;;17.50;10.50;;;;;;;13.44;74.35;102441.50;5015025;28;20387;-58
2022/08/08 04:27:19;;;;;;;13.48;10.68;;;;;;;13.40;73.84;102448.13;5017446;28;20037;-57
2022/08/08 04:29:44;;;;;;;13.30;10.30;;;;;;;13.44;74.17;102460.19;5014116;28;20020;-55
2022/08/08 04:32:13;;;;;;;15.95;10.18;;;;;;;13.39;73.80;102454.47;5018214;28;20509;-54
2022/08/08 04:34:39;;;;;;;12.27;9.57;;;;;;;13.46;73.77;102457.34;5016735;28;20021;-57
2022/08/08 04:37:04;;;;;;;13.13;9.73;;;;;;;13.48;74.22;102458.03;5021791;28;20034;-56
2022/08/08 04:39:29;;;;;;;10.57;9.13;;;;;;;13.35;73.87;102460.25;5023880;28;20032;-55
2022/08/08 04:41:55;;;;;;;10.80;8.85;;;;;;;13.28;73.57;102467.97;5021135;28;20083;-56
2022/08/08 04:44:20;;;;;;;10.85;8.60;;;;;;;13.25;73.36;102471.78;5014444;28;20078;-55
2022/08/08 04:46:45;;;;;;;9.85;7.78;;;;;;;13.21;74.07;102470.41;5017781;28;20026;-57
2022/08/08 04:49:10;;;;;;;10.05;8.00;;;;;;;13.18;74.04;102470.72;5015586;28;20034;-55
2022/08/08 04:51:36;;;;;;;7.85;7.05;;;;;;;13.20;74.30;102483.91;5017260;28;20483;-56
2022/08/08 04:54:01;;;;;;;13.40;8.27;;;;;;;13.17;74.01;102478.81;5022411;28;20041;-54
2022/08/08 04:56:26;;;;;;;9.77;8.00;;;;;;;13.24;74.45;102485.28;5017483;28;20034;-56
2022/08/08 04:58:51;;;;;;;10.60;8.05;;;;;;;13.27;74.91;102493.81;5022723;28;20036;-56
2022/08/08 05:01:17;;;;;;;13.73;8.80;;;;;;;13.29;74.96;102480.34;5015170;28;20667;-56
2022/08/08 05:03:42;;;;;;;13.10;8.50;;;;;;;13.45;75.09;102498.38;5018620;28;20529;-56
2022/08/08 05:06:07;;;;;;;11.52;9.18;;;;;;;13.54;75.19;102503.66;5011485;28;20026;-56
2022/08/08 05:08:33;;;;;;;13.38;10.15;;;;;;;13.59;75.75;102503.22;5021040;28;20041;-53
2022/08/08 05:10:58;;;;;;;14.27;9.65;;;;;;;13.72;76.01;102505.53;5016070;28;20040;-54
2022/08/08 05:13:23;;;;;;;14.45;10.00;;;;;;;13.75;76.39;102502.56;5020426;28;20037;-53
2022/08/08 05:15:48;;;;;;;13.75;11.10;;;;;;;13.93;76.63;102498.09;5021789;28;20021;-57
2022/08/08 05:18:14;;;;;;;14.90;10.55;;;;;;;13.97;76.14;102499.47;5021578;28;20156;-56
2022/08/08 05:20:39;;;;;;;13.95;10.38;;;;;;;14.03;76.21;102498.00;5013435;28;20030;-55
2022/08/08 05:23:04;;;;;;;13.55;11.15;;;;;;;14.16;76.59;102504.63;5019110;28;20034;-56
2022/08/08 05:25:30;;;;;;;17.67;12.98;;;;;;;14.43;76.88;102509.06;5013798;28;20026;-55
2022/08/08 05:27:56;;;;;;;20.33;13.05;;;;;;;14.56;77.24;102512.19;5017636;28;20021;-55
2022/08/08 05:30:21;;;;;;;17.02;13.27;;;;;;;14.79;77.51;102511.69;5018021;28;20037;-52
2022/08/08 05:32:46;;;;;;;15.88;13.50;;;;;;;15.01;78.04;102521.84;5020758;28;20030;-56
2022/08/08 05:35:13;;;;;;;23.98;13.73;;;;;;;15.21;77.83;102516.25;5017689;28;20457;-55
2022/08/08 05:37:47;;;;;;;18.25;12.45;;;;;;;15.32;78.04;102510.59;5012867;28;20021;-56
2022/08/08 05:40:13;;;;;;;13.57;11.50;;;;;;;15.34;77.22;102516.66;5020647;28;20069;-55
2022/08/08 05:42:45;;;;;;;17.25;11.88;;;;;;;15.43;77.42;102502.31;5022133;28;20061;-53
2022/08/08 05:45:12;;;;;;;16.55;12.88;;;;;;;15.64;77.63;102518.81;5023548;28;20044;-55
2022/08/08 05:47:39;;;;;;;18.05;11.65;;;;;;;15.76;77.58;102522.03;5021670;28;20876;-53
2022/08/08 05:50:06;;;;;;;15.80;11.15;;;;;;;15.70;76.90;102514.66;5026973;28;20715;-53
2022/08/08 05:52:36;;;;;;;16.20;11.52;;;;;;;15.99;77.10;102517.72;5018912;28;20029;-55
2022/08/08 05:55:09;;;;;;;17.38;11.45;;;;;;;16.05;76.69;102518.91;5020662;28;20471;-58
2022/08/08 05:57:36;;;;;;;17.15;11.27;;;;;;;16.09;76.77;102512.19;5016679;28;20388;-55
2022/08/08 06:00:08;;;;;;;15.23;10.73;;;;;;;16.33;76.48;102516.75;5019666;28;20089;-58
2022/08/08 06:05:20;;;;;;;15.48;10.43;;;;;;;16.42;75.91;102511.19;5022271;28;20138;-58
2022/08/08 06:07:48;;;;;;;16.63;10.40;;;;;;;16.52;75.55;102520.94;5021698;28;20478;-57
2022/08/08 06:10:14;;;;;;;12.05;9.55;;;;;;;16.52;75.77;102521.78;5021655;28;20025;-58
2022/08/08 06:12:40;;;;;;;13.00;10.20;;;;;;;16.58;75.44;102518.41;5024672;28;20579;-57
2022/08/08 06:15:08;;;;;;;12.85;9.85;;;;;;;16.63;75.52;102523.28;5025606;28;20083;-57
2022/08/08 06:17:35;;;;;;;13.95;9.35;;;;;;;16.70;75.22;102524.28;5020554;28;20030;-57
2022/08/08 06:20:09;;;;;;;13.88;9.77;;;;;;;16.76;75.09;102528.13;5017471;28;20101;-57
2022/08/08 06:22:34;;;;;;;13.68;9.25;;;;;;;16.76;75.01;102536.19;5027668;28;20025;-58
2022/08/08 06:25:00;;;;;;;14.18;9.57;;;;;;;16.87;74.85;102528.63;5023582;28;20088;-55
2022/08/08 06:27:41;;;;;;;11.48;8.77;;;;;;;16.92;74.17;102539.69;5026210;28;20123;-56
2022/08/08 06:30:08;;;;;;;12.80;8.85;;;;;;;16.96;73.99;102527.59;5024969;28;20025;-56
2022/08/08 06:32:43;;;;;;;71.55;54.53;;;;;;;16.98;74.05;102536.31;5025598;28;20026;-57
2022/08/08 06:35:11;;;;;;;21.05;11.48;;;;;;;17.10;73.88;102536.81;5026226;28;20065;-57
2022/08/08 06:37:38;;;;;;;16.08;9.18;;;;;;;17.18;73.70;102544.00;5028117;28;20029;-57
2022/08/08 06:40:05;;;;;;;13.90;9.23;;;;;;;17.22;73.74;102550.69;5026055;28;20205;-57
2022/08/08 06:42:37;;;;;;;13.23;8.80;;;;;;;17.30;73.64;102551.50;5025333;28;20483;-57
2022/08/08 06:45:05;;;;;;;11.60;7.90;;;;;;;17.35;73.18;102556.38;5022060;28;20021;-56
2022/08/08 06:47:30;;;;;;;10.35;7.82;;;;;;;17.39;72.64;102555.00;4998029;28;20426;-57
2022/08/08 06:49:56;;;;;;;17.13;8.88;;;;;;;17.52;72.58;102557.97;5025127;28;20462;-56
2022/08/08 06:52:22;;;;;;;13.20;9.10;;;;;;;17.65;72.68;102547.50;5017402;28;20114;-56
2022/08/08 06:54:48;;;;;;;16.70;9.13;;;;;;;17.73;72.77;102545.81;5013044;28;20109;-58
2022/08/08 06:57:14;;;;;;;13.75;8.48;;;;;;;17.86;72.58;102541.53;5011784;28;20026;-55
2022/08/08 06:59:39;;;;;;;10.43;8.35;;;;;;;18.04;72.27;102551.19;5012353;28;20087;-56
2022/08/08 07:02:05;;;;;;;13.25;8.40;;;;;;;18.06;72.02;102558.06;5012206;28;20026;-56
2022/08/08 07:04:43;;;;;;;14.23;8.48;;;;;;;18.16;71.97;102555.97;5013969;28;20076;-57
2022/08/08 07:07:09;;;;;;;9.82;7.82;;;;;;;18.18;71.20;102553.91;5011833;28;20092;-54
2022/08/08 07:10:00;;;;;;;10.25;7.25;;;;;;;18.34;70.99;102563.75;5012787;28;20018;-57
2022/08/08 07:12:42;;;;;;;14.15;8.48;;;;;;;18.43;70.38;102559.97;5013829;28;20033;-55
2022/08/08 07:15:11;;;;;;;115.25;84.53;;;;;;;18.52;69.89;102558.91;5014139;28;20448;-57
2022/08/08 07:17:45;;;;;;;;;;;;;;;18.60;69.84;102571.44;5018541;28;20025;-56
2022/08/08 07:20:15;;;;;;;9.18;6.50;;;;;;;18.72;69.73;102569.16;5017590;28;19940;-56
2022/08/08 07:23:14;;;;;;;10.30;5.32;;;;;;;18.78;69.14;102581.88;5017070;28;20028;-55
2022/08/08 07:25:41;;;;;;;9.32;5.63;;;;;;;18.85;68.85;102578.31;5016964;28;20025;-55
2022/08/08 07:28:10;;;;;;;8.57;5.40;;;;;;;18.88;68.65;102577.94;5015300;28;20029;-57
2022/08/08 07:30:35;;;;;;;;;;;;;;;18.97;68.52;102575.16;5016747;28;20018;-56
2022/08/08 07:33:02;;;;;;;10.88;4.53;;;;;;;18.93;68.25;102576.56;5014224;28;19920;-57
2022/08/08 07:35:28;;;;;;;7.50;4.05;;;;;;;18.85;67.27;102572.09;5016860;28;20032;-57
2022/08/08 07:37:56;;;;;;;5.88;3.60;;;;;;;18.94;67.00;102578.22;5012218;28;20033;-58
2022/08/08 07:40:23;;;;;;;4.82;3.40;;;;;;;18.98;67.12;102574.13;5020013;28;20398;-57
2022/08/08 07:42:52;;;;;;;5.38;3.10;;;;;;;19.00;66.60;102566.72;5019484;28;20025;-58
2022/08/08 07:45:17;;;;;;;;;;;;;;;19.12;66.20;102570.66;5023728;28;20057;-58
2022/08/08 07:47:43;;;;;;;5.07;2.40;;;;;;;19.10;66.25;102570.84;5020506;28;19994;-58
2022/08/08 07:50:09;;;;;;;8.00;2.90;;;;;;;19.16;65.76;102572.78;5021111;28;20487;-57
2022/08/08 07:52:35;;;;;;;5.47;2.75;;;;;;;19.14;65.53;102569.44;5022099;28;20030;-56
2022/08/08 07:55:05;;;;;;;6.05;2.53;;;;;;;19.23;65.37;102570.16;5022858;28;20026;-56
2022/08/08 07:58:09;;;;;;;8.32;3.42;;;;;;;19.31;65.04;102580.84;5023313;28;20414;-57
2022/08/08 08:00:51;;;;;;;7.40;4.55;;;;;;;19.37;64.57;102572.03;5013261;28;20064;-55
2022/08/08 08:03:41;;;;;;;7.85;3.40;;;;;;;19.39;64.45;102578.09;5016289;28;20022;-58
2022/08/08 08:06:10;;;;;;;7.72;2.78;;;;;;;19.45;64.42;102577.31;5023338;28;20045;-57
2022/08/08 08:08:39;;;;;;;;;;;;;;;19.57;64.47;102584.97;5022672;28;20032;-56
2022/08/08 08:11:11;;;;;;;6.30;2.78;;;;;;;19.53;63.83;102586.34;5023877;28;19921;-56
2022/08/08 08:13:55;;;;;;;4.57;2.83;;;;;;;19.61;63.88;102587.09;5013202;28;20022;-57
2022/08/08 08:16:25;;;;;;;6.53;2.72;;;;;;;19.66;63.88;102584.69;5021198;28;20080;-59
2022/08/08 08:18:57;;;;;;;6.80;2.67;;;;;;;19.63;63.39;102592.28;5019800;28;20104;-56
2022/08/08 08:21:26;;;;;;;3.75;2.50;;;;;;;19.68;63.05;102584.50;5024233;28;20037;-57
2022/08/08 08:23:51;;;;;;;5.07;2.70;;;;;;;19.73;62.66;102587.47;5016323;28;20092;-56
2022/08/08 08:26:17;;;;;;;5.53;2.40;;;;;;;19.79;63.00;102589.41;5020641;28;20117;-58
2022/08/08 08:28:43;;;;;;;8.48;3.08;;;;;;;19.83;62.54;102590.69;5015465;28;20021;-56
2022/08/08 08:31:09;;;;;;;5.90;2.70;;;;;;;19.89;62.97;102594.47;5020265;28;20029;-55
2022/08/08 08:33:34;;;;;;;5.78;2.67;;;;;;;19.93;62.59;102591.22;5017081;28;20037;-59
2022/08/08 08:36:00;;;;;;;8.32;2.80;;;;;;;19.93;62.50;102596.59;5022912;28;20041;-56
2022/08/08 08:38:25;;;;;;;6.38;2.40;;;;;;;19.94;62.03;102598.28;5022659;28;20044;-57
2022/08/08 08:40:52;;;;;;;5.93;2.40;;;;;;;19.99;61.88;102595.03;5018973;28;20502;-54
2022/08/08 08:43:18;;;;;;;5.63;2.45;;;;;;;20.03;62.01;102602.56;5017406;28;20431;-56
2022/08/08 08:45:46;;;;;;;7.53;2.40;;;;;;;20.07;62.20;102603.84;5020141;28;20542;-56
2022/08/08 08:48:13;;;;;;;6.90;2.47;;;;;;;20.17;61.69;102600.81;5016641;28;20033;-55
2022/08/08 08:50:40;;;;;;;5.60;2.08;;;;;;;20.25;61.63;102599.88;5021931;28;20108;-56
2022/08/08 08:53:08;;;;;;;4.28;2.53;;;;;;;20.26;61.21;102599.69;5024352;28;20040;-56
2022/08/08 08:55:38;;;;;;;5.82;2.42;;;;;;;20.34;60.53;102609.53;5018773;28;20030;-57
2022/08/08 08:58:06;;;;;;;9.05;2.60;;;;;;;20.42;60.38;102614.81;5018894;28;20030;-57
2022/08/08 09:00:34;;;;;;;3.53;2.03;;;;;;;20.54;60.31;102616.00;5018753;28;20041;-58
2022/08/08 09:03:04;;;;;;;5.67;2.60;;;;;;;20.56;60.40;102602.31;5016670;28;20029;-56
2022/08/08 09:05:31;;;;;;;5.43;2.20;;;;;;;20.72;59.72;102602.00;5015812;28;20028;-56
2022/08/08 09:07:59;;;;;;;5.20;2.20;;;;;;;20.81;59.72;102603.53;5015639;28;20036;-57
2022/08/08 09:10:27;;;;;;;5.28;2.60;;;;;;;20.93;59.30;102607.38;5015906;28;20083;-55
2022/08/08 09:12:54;;;;;;;6.75;2.22;;;;;;;21.04;59.12;102612.25;5013000;28;20084;-57
2022/08/08 09:15:20;;;;;;;5.65;2.20;;;;;;;21.19;58.97;102614.03;5014751;28;20371;-56
2022/08/08 09:17:46;;;;;;;6.85;2.30;;;;;;;21.33;58.86;102610.38;5024449;28;20032;-58
2022/08/08 09:20:11;;;;;;;5.80;2.45;;;;;;;21.47;58.30;102609.44;5024906;28;20487;-59
2022/08/08 09:22:37;;;;;;;7.35;2.28;;;;;;;21.54;58.03;102615.72;5025027;28;20101;-58
2022/08/08 09:25:04;;;;;;;6.40;2.35;;;;;;;21.63;57.61;102616.38;5027728;28;20049;-58
2022/08/08 09:27:30;;;;;;;4.50;2.00;;;;;;;21.74;57.54;102613.13;5024157;28;20041;-58
2022/08/08 09:30:04;;;;;;;6.15;2.50;;;;;;;22.04;57.53;102618.25;5026091;28;20075;-57
2022/08/08 09:32:46;;;;;;;22.20;11.13;;;;;;;22.27;57.42;102610.63;5026720;28;20033;-59
2022/08/08 09:35:15;;;;;;;15.10;8.93;;;;;;;22.50;56.45;102612.91;5023069;28;20372;-59
2022/08/08 09:37:47;;;;;;;4.70;1.92;;;;;;;22.64;55.73;102619.19;5025579;28;20055;-58
2022/08/08 09:40:24;;;;;;;8.05;3.00;;;;;;;22.90;55.35;102616.53;5024056;28;20448;-57
2022/08/08 09:43:25;;;;;;;3.65;1.70;;;;;;;23.12;54.08;102604.38;5023709;28;20025;-59
2022/08/08 09:46:01;;;;;;;4.85;1.60;;;;;;;23.04;52.91;102604.63;5023919;28;20022;-59
2022/08/08 09:48:35;;;;;;;3.00;1.75;;;;;;;23.18;52.79;102600.88;5024352;28;20509;-54
2022/08/08 09:51:02;;;;;;;6.75;2.28;;;;;;;23.42;52.65;102598.53;5023335;28;20410;-57
2022/08/08 09:53:46;;;;;;;4.00;1.80;;;;;;;23.62;51.83;102599.28;5024572;28;20032;-57
2022/08/08 09:56:13;;;;;;;3.47;1.70;;;;;;;23.58;51.31;102605.38;5022785;28;20029;-55
2022/08/08 09:58:47;;;;;;;3.05;1.20;;;;;;;23.51;50.21;102601.81;5025687;28;20056;-58
2022/08/08 10:01:17;;;;;;;5.03;1.50;;;;;;;23.62;50.44;102604.72;5020275;28;20040;-59
2022/08/08 10:03:48;;;;;;;22.38;17.35;;;;;;;24.01;51.09;102602.91;5024127;28;20031;-59
2022/08/08 10:06:15;;;;;;;3.33;1.20;;;;;;;24.05;50.20;102604.94;5021081;28;20026;-59
2022/08/08 10:08:45;;;;;;;4.63;1.55;;;;;;;24.03;49.42;102607.06;5027496;28;20395;-58
2022/08/08 10:11:11;;;;;;;3.13;1.30;;;;;;;23.85;48.78;102611.53;5022524;28;20664;-56
2022/08/08 10:13:36;;;;;;;4.38;1.40;;;;;;;23.93;48.74;102608.56;5020405;28;20075;-59
2022/08/08 10:16:02;;;;;;;5.30;1.23;;;;;;;23.78;48.33;102608.84;5022177;28;20029;-58
2022/08/08 10:18:34;;;;;;;3.17;1.17;;;;;;;23.82;48.19;102606.53;5020990;28;20026;-59
2022/08/08 10:21:04;;;;;;;2.38;1.20;;;;;;;24.09;48.99;102611.59;5018706;28;20032;-59
2022/08/08 10:23:45;;;;;;;4.45;1.65;;;;;;;24.24;47.91;102610.47;5017626;28;20025;-59
2022/08/08 10:26:57;;;;;;;4.55;1.33;;;;;;;24.59;48.09;102603.59;5019711;28;20021;-60
2022/08/08 10:29:43;;;;;;;1.85;1.00;;;;;;;24.88;46.58;102601.25;4943027;28;20027;-58
2022/08/08 10:34:59;;;;;;;3.03;1.20;;;;;;;25.19;46.26;102600.34;5007320;28;20457;-58
2022/08/08 10:37:28;;;;;;;6.70;1.15;;;;;;;25.38;45.44;102595.72;5021928;28;20021;-59
2022/08/08 10:39:55;;;;;;;2.30;0.85;;;;;;;25.35;44.92;102602.47;5024321;28;20087;-59
2022/08/08 10:42:32;;;;;;;1.02;0.80;;;;;;;25.30;43.83;102603.13;5023213;28;20021;-58
2022/08/08 10:45:06;;;;;;;2.92;0.82;;;;;;;25.03;43.40;102596.31;5020937;28;20032;-59
2022/08/08 10:47:32;;;;;;;1.70;0.95;;;;;;;25.32;43.51;102603.75;5024761;28;20029;-59
2022/08/08 10:50:03;;;;;;;1.92;1.20;;;;;;;25.40;42.96;102601.78;5022537;28;20014;-59
2022/08/08 10:52:35;;;;;;;2.83;0.90;;;;;;;25.44;42.43;102601.09;5018664;28;20026;-58
2022/08/08 10:55:02;;;;;;;2.92;1.02;;;;;;;25.61;42.75;102596.72;5015973;28;20026;-60
2022/08/08 10:57:27;;;;;;;2.63;0.90;;;;;;;25.73;42.45;102590.53;5020019;28;20056;-60
2022/08/08 10:59:57;;;;;;;1.92;1.25;;;;;;;25.80;42.46;102600.28;5019760;28;20493;-60
2022/08/08 11:02:25;;;;;;;1.95;0.80;;;;;;;25.51;42.10;102607.31;5023802;28;20026;-58
2022/08/08 11:04:50;;;;;;;2.10;0.80;;;;;;;25.42;42.22;102602.38;5021037;28;20029;-60
2022/08/08 11:07:28;;;;;;;3.50;0.90;;;;;;;25.31;41.97;102601.25;5020833;28;20033;-56
2022/08/08 11:09:53;;;;;;;1.90;0.90;;;;;;;25.08;42.06;102593.75;5019911;28;20056;-58
2022/08/08 11:12:19;;;;;;;1.17;0.85;;;;;;;24.96;42.25;102585.47;5018407;28;20045;-58
2022/08/08 11:14:56;;;;;;;1.48;0.90;;;;;;;25.15;42.56;102585.50;5020716;28;20029;-58
2022/08/08 11:17:25;;;;;;;3.95;0.90;;;;;;;25.22;42.17;102583.59;5021884;28;20040;-57
2022/08/08 11:19:52;;;;;;;3.90;0.80;;;;;;;25.14;41.50;102583.84;5018806;28;20435;-59
2022/08/08 11:22:23;;;;;;;2.55;0.98;;;;;;;25.05;41.22;102575.16;5019476;28;20040;-60
2022/08/08 11:24:49;;;;;;;3.08;0.90;;;;;;;25.31;41.98;102574.88;5026072;28;20025;-58
2022/08/08 11:27:16;;;;;;;13.18;9.65;;;;;;;25.53;41.75;102579.88;5023872;28;20036;-58
2022/08/08 11:29:44;;;;;;;2.53;0.93;;;;;;;25.40;40.95;102572.69;5022768;28;20067;-59
2022/08/08 11:32:11;;;;;;;;;;;;;;;25.64;41.06;102573.66;5022911;28;20102;-58
2022/08/08 11:34:41;;;;;;;2.50;0.90;;;;;;;25.21;41.05;102574.59;5021676;28;19967;-57
2022/08/08 11:37:07;;;;;;;3.10;1.15;;;;;;;25.14;41.13;102571.09;5021085;28;20109;-58
2022/08/08 11:39:34;;;;;;;1.98;0.90;;;;;;;25.26;41.23;102572.03;5021403;28;20025;-58
2022/08/08 11:41:59;;;;;;;1.55;0.90;;;;;;;25.47;41.25;102568.03;5021111;28;20026;-57
2022/08/08 11:44:26;;;;;;;2.03;1.00;;;;;;;25.68;41.26;102568.63;5020701;28;20582;-57
2022/08/08 11:46:56;;;;;;;2.05;1.08;;;;;;;25.84;41.23;102562.53;5023029;28;20040;-57
2022/08/08 11:49:23;;;;;;;2.55;1.08;;;;;;;25.81;40.81;102561.13;5021578;28;20034;-58
2022/08/08 11:51:52;;;;;;;4.50;1.20;;;;;;;25.62;40.97;102564.88;5019918;28;20488;-58
2022/08/08 11:54:28;;;;;;;;;;;;;;;25.86;41.03;102560.41;5025173;28;20029;-59
2022/08/08 11:56:53;;;;;;;2.95;1.10;;;;;;;25.81;41.48;102557.56;5022095;28;19940;-58